Time;durP1;ratioP1;P1;durP2;ratioP2;P2;SDS_P1;SDS_P2;PMS_P1;PMS_P2;Temp;Humidity;BMP_temperature;BMP_pressure;BME280_temperature;BME280_humidity;BME280_pressure;Samples;Min_cycle;Max_cycle;Signal;HPM_P1;HPM_P2
2022/05/07 00:01:03;;;;;;;7.35;6.43;;;8.30;99.90;;;;;;6273312;22;20202;-69
2022/05/07 00:03:29;;;;;;;7.88;6.80;;;8.30;99.90;;;;;;6272732;22;20179;-69
2022/05/07 00:05:56;;;;;;;6.80;6.20;;;8.30;99.90;;;;;;6283008;22;20174;-69
2022/05/07 00:08:23;;;;;;;6.93;5.97;;;8.20;99.90;;;;;;6273170;22;20195;-68
2022/05/07 00:10:50;;;;;;;7.50;6.80;;;8.20;99.90;;;;;;6272992;22;20183;-68
2022/05/07 00:13:18;;;;;;;6.82;6.22;;;8.10;99.90;;;;;;6273800;22;20555;-70
2022/05/07 00:18:01;;;;;;;8.18;6.53;;;8.10;99.90;;;;;;6273962;22;20175;-70
2022/05/07 00:18:30;;;;;;;7.38;6.13;;;8.10;99.90;;;;;;6272080;22;20192;-69
2022/05/07 00:20:57;;;;;;;9.93;7.37;;;8.10;99.90;;;;;;6273982;22;20196;-70
2022/05/07 00:23:24;;;;;;;7.90;7.10;;;8.00;99.90;;;;;;6273409;22;20183;-69
2022/05/07 00:25:50;;;;;;;7.68;6.88;;;8.00;99.90;;;;;;6273569;22;20175;-68
2022/05/07 00:28:18;;;;;;;9.35;7.68;;;7.90;99.90;;;;;;6272879;22;20557;-68
2022/05/07 00:30:45;;;;;;;8.88;6.63;;;7.90;99.90;;;;;;6274106;22;20172;-68
2022/05/07 00:33:12;;;;;;;9.13;6.03;;;7.90;99.90;;;;;;6273693;22;20179;-69
2022/05/07 00:35:38;;;;;;;8.75;7.28;;;7.90;99.90;;;;;;6274220;22;20180;-69
2022/05/07 00:38:05;;;;;;;6.78;6.10;;;7.90;99.90;;;;;;6273402;22;20198;-69
2022/05/07 00:40:32;;;;;;;6.90;6.10;;;7.80;99.90;;;;;;6273718;22;20195;-69
2022/05/07 00:42:59;;;;;;;6.45;5.70;;;7.80;99.90;;;;;;6274154;22;20233;-70
2022/05/07 00:45:27;;;;;;;6.50;5.90;;;7.80;99.90;;;;;;6274118;22;20505;-68
2022/05/07 00:47:54;;;;;;;8.25;6.15;;;7.80;99.90;;;;;;6274541;22;20192;-70
2022/05/07 00:53:06;;;;;;;7.25;5.97;;;7.70;99.90;;;;;;6274836;22;20171;-70
2022/05/07 00:55:33;;;;;;;8.13;5.63;;;7.70;99.90;;;;;;6274102;22;20176;-70
2022/05/07 00:58:00;;;;;;;7.70;6.00;;;7.70;99.90;;;;;;6273352;22;20192;-69
2022/05/07 01:00:28;;;;;;;6.88;6.22;;;7.60;99.90;;;;;;6273689;22;20672;-69
2022/05/07 01:02:55;;;;;;;6.30;5.65;;;7.60;99.90;;;;;;6273701;22;20519;-69
2022/05/07 01:05:22;;;;;;;7.60;5.35;;;7.50;99.90;;;;;;6273967;22;20207;-71
2022/05/07 01:07:50;;;;;;;9.50;6.40;;;7.50;99.90;;;;;;6273824;22;20199;-71
2022/05/07 01:10:17;;;;;;;6.88;6.05;;;7.50;99.90;;;;;;6273251;22;20152;-71
2022/05/07 01:12:45;;;;;;;10.00;5.78;;;7.50;99.90;;;;;;6273521;22;20175;-70
2022/05/07 01:15:12;;;;;;;6.40;5.80;;;7.50;99.90;;;;;;6273384;22;20178;-70
2022/05/07 01:17:40;;;;;;;5.88;4.97;;;7.40;99.90;;;;;;6273610;22;20593;-70
2022/05/07 01:20:09;;;;;;;5.97;5.38;;;7.40;99.90;;;;;;6272751;22;20188;-70
2022/05/07 01:22:37;;;;;;;5.63;5.05;;;7.40;99.90;;;;;;6273479;22;20176;-69
2022/05/07 01:25:06;;;;;;;6.65;4.90;;;7.40;99.90;;;;;;6273633;22;20176;-70
2022/05/07 01:27:33;;;;;;;6.22;5.05;;;7.30;99.90;;;;;;6273636;22;20179;-70
2022/05/07 01:29:59;;;;;;;5.22;4.70;;;7.30;99.90;;;;;;6273254;22;20176;-71
2022/05/07 01:32:26;;;;;;;6.07;5.10;;;7.30;99.90;;;;;;6273468;22;20179;-69
2022/05/07 01:34:53;;;;;;;6.15;5.28;;;7.20;99.90;;;;;;6273821;22;20184;-70
2022/05/07 01:37:20;;;;;;;6.05;4.90;;;7.20;99.90;;;;;;6273439;22;20647;-70
2022/05/07 01:39:49;;;;;;;6.88;4.70;;;7.30;99.90;;;;;;6288403;22;20191;-96
2022/05/07 01:42:16;;;;;;;6.57;5.65;;;7.20;99.90;;;;;;6314668;22;20485;-95
2022/05/07 01:44:46;;;;;;;4.82;4.43;;;7.20;99.90;;;;;;6313909;22;20188;-96
2022/05/07 01:50:13;;;;;;;6.65;4.60;;;7.20;99.90;;;;;;6190148;23;20150;-95
2022/05/07 01:52:40;;;;;;;5.95;4.63;;;7.20;99.90;;;;;;6189799;23;20162;-94
2022/05/07 01:55:09;;;;;;;5.00;4.50;;;7.20;99.90;;;;;;6245587;22;20176;-95
2022/05/07 01:57:36;;;;;;;5.18;4.50;;;7.20;99.90;;;;;;6313628;22;20168;-95
2022/05/07 02:00:04;;;;;;;5.45;4.75;;;7.10;99.90;;;;;;6312533;22;20187;-95
2022/05/07 02:02:31;;;;;;;7.82;4.80;;;7.10;99.90;;;;;;6312969;22;20156;-94
2022/05/07 02:05:00;;;;;;;6.70;5.60;;;7.10;99.90;;;;;;6312786;22;20180;-95
2022/05/07 02:07:28;;;;;;;6.38;5.45;;;7.00;99.90;;;;;;6313799;22;20171;-96
2022/05/07 02:09:54;;;;;;;5.43;4.88;;;7.00;99.90;;;;;;6315020;22;20160;-94
2022/05/07 02:12:23;;;;;;;5.18;4.68;;;7.00;99.90;;;;;;6315510;22;20180;-95
2022/05/07 02:14:55;;;;;;;5.10;4.60;;;7.00;99.90;;;;;;6315527;22;20179;-95
2022/05/07 02:17:22;;;;;;;5.88;4.70;;;7.00;99.90;;;;;;6315214;22;20151;-95
2022/05/07 02:19:49;;;;;;;6.20;5.22;;;7.00;99.90;;;;;;6313491;22;20183;-94
2022/05/07 02:22:16;;;;;;;6.47;5.82;;;7.00;99.90;;;;;;6315202;22;20162;-94
2022/05/07 02:24:43;;;;;;;5.60;4.70;;;6.90;99.90;;;;;;6315462;22;20172;-94
2022/05/07 02:27:10;;;;;;;5.22;4.35;;;6.90;99.90;;;;;;6315257;22;20157;-93
2022/05/07 02:29:38;;;;;;;4.70;4.30;;;6.90;99.90;;;;;;6314491;22;20183;-94
2022/05/07 02:32:06;;;;;;;6.30;4.70;;;6.80;99.90;;;;;;6315452;22;20167;-95
2022/05/07 02:34:34;;;;;;;5.97;5.00;;;6.80;99.90;;;;;;6315550;22;20172;-95
2022/05/07 02:37:01;;;;;;;5.47;4.95;;;6.80;99.90;;;;;;6315511;22;20207;-94
2022/05/07 02:39:28;;;;;;;5.55;5.05;;;6.80;99.90;;;;;;6314413;22;20204;-95
2022/05/07 02:44:42;;;;;;;6.05;5.50;;;6.70;99.90;;;;;;6315791;22;20175;-95
2022/05/07 02:47:09;;;;;;;5.78;5.00;;;6.70;99.90;;;;;;6315278;22;20161;-94
2022/05/07 02:49:36;;;;;;;7.00;5.03;;;6.70;99.90;;;;;;6314591;22;20167;-95
2022/05/07 02:52:03;;;;;;;8.15;5.10;;;6.70;99.90;;;;;;6315601;22;20159;-94
2022/05/07 02:54:30;;;;;;;5.60;4.85;;;6.70;99.90;;;;;;6315129;22;20192;-96
2022/05/07 02:56:58;;;;;;;5.15;4.70;;;6.60;99.90;;;;;;6315261;22;20168;-95
2022/05/07 02:59:25;;;;;;;9.32;4.45;;;6.60;99.90;;;;;;6314260;22;20203;-95
2022/05/07 03:01:53;;;;;;;5.25;4.75;;;6.60;99.90;;;;;;6314869;22;20207;-94
2022/05/07 03:04:20;;;;;;;5.57;4.97;;;6.60;99.90;;;;;;6314928;22;20199;-94
2022/05/07 03:06:48;;;;;;;5.93;5.03;;;6.60;99.90;;;;;;6314830;22;20172;-94
2022/05/07 03:09:15;;;;;;;6.05;4.72;;;6.50;99.90;;;;;;6314395;22;20172;-94
2022/05/07 03:11:44;;;;;;;5.68;5.07;;;6.50;99.90;;;;;;6314118;22;20179;-95
2022/05/07 03:14:11;;;;;;;7.60;4.93;;;6.50;99.90;;;;;;6314493;22;20195;-95
2022/05/07 03:16:39;;;;;;;5.60;5.00;;;6.50;99.90;;;;;;6314445;22;20172;-95
2022/05/07 03:19:07;;;;;;;5.30;4.80;;;6.50;99.90;;;;;;6313456;22;20152;-94
2022/05/07 03:21:34;;;;;;;7.25;5.60;;;6.50;99.90;;;;;;6314981;22;20210;-93
2022/05/07 03:24:02;;;;;;;5.00;4.50;;;6.40;99.90;;;;;;6315063;22;20235;-95
2022/05/07 03:27:00;;;;;;;6.10;5.50;;;6.40;99.90;;;;;;6314765;22;20169;-94
2022/05/07 03:29:27;;;;;;;5.57;5.03;;;6.30;99.90;;;;;;6314020;22;20152;-94
2022/05/07 03:31:54;;;;;;;5.47;4.75;;;6.30;99.90;;;;;;6314660;22;20206;-95
2022/05/07 03:34:22;;;;;;;5.45;4.95;;;6.40;99.90;;;;;;6314516;22;20244;-94
2022/05/07 03:36:49;;;;;;;6.13;5.35;;;6.40;99.90;;;;;;6314691;22;20171;-95
2022/05/07 03:39:17;;;;;;;5.45;4.40;;;6.40;99.90;;;;;;6314361;22;20156;-94
2022/05/07 03:41:44;;;;;;;7.53;4.75;;;6.40;99.90;;;;;;6283516;22;20181;-93
2022/05/07 03:44:10;;;;;;;7.35;5.05;;;6.40;99.90;;;;;;6283710;22;20173;-94
2022/05/07 03:46:37;;;;;;;5.85;5.30;;;6.40;99.90;;;;;;6283885;22;20163;-94
2022/05/07 03:49:04;;;;;;;7.25;4.88;;;6.40;99.90;;;;;;6281438;23;20176;-94
2022/05/07 03:53:29;;;;;;;5.30;4.72;;;6.40;99.90;;;;;;6281917;23;20195;-94
2022/05/07 03:54:19;;;;;;;6.93;4.85;;;6.40;99.90;;;;;;6272484;22;20196;-94
2022/05/07 03:56:46;;;;;;;5.27;4.50;;;6.40;99.90;;;;;;6283361;22;20235;-96
2022/05/07 03:59:13;;;;;;;5.40;4.72;;;6.30;99.90;;;;;;6283191;22;20148;-95
2022/05/07 04:01:40;;;;;;;5.82;5.20;;;6.30;99.90;;;;;;6283113;22;20192;-95
2022/05/07 04:04:07;;;;;;;6.57;4.57;;;6.30;99.90;;;;;;6281153;23;20312;-94
2022/05/07 04:06:35;;;;;;;6.75;4.50;;;6.30;99.90;;;;;;6282973;22;20208;-95
2022/05/07 04:09:02;;;;;;;4.28;3.88;;;6.30;99.90;;;;;;6282196;23;20183;-95
2022/05/07 04:11:29;;;;;;;5.35;4.85;;;6.30;99.90;;;;;;6283055;22;20232;-94
2022/05/07 04:13:55;;;;;;;4.82;4.43;;;6.30;99.90;;;;;;6284771;22;20179;-95
2022/05/07 04:19:03;;;;;;;5.90;5.18;;;6.30;99.90;;;;;;6222481;22;20175;-93
2022/05/07 04:21:30;;;;;;;5.32;4.70;;;6.40;99.90;;;;;;6285207;22;20172;-94
2022/05/07 04:23:58;;;;;;;5.88;4.65;;;6.40;99.90;;;;;;6285150;22;20172;-94
2022/05/07 04:26:25;;;;;;;4.75;4.25;;;6.40;99.90;;;;;;6284989;22;20160;-93
2022/05/07 04:28:52;;;;;;;5.05;4.55;;;6.50;99.90;;;;;;6283805;22;20179;-95
2022/05/07 04:31:52;;;;;;;5.60;4.57;;;6.50;99.90;;;;;;6284389;22;20157;-94
2022/05/07 04:34:18;;;;;;;5.38;4.63;;;6.50;99.90;;;;;;6255205;22;20231;-70
2022/05/07 04:36:45;;;;;;;5.57;4.90;;;6.50;99.90;;;;;;6244079;23;20518;-70
2022/05/07 04:39:13;;;;;;;4.65;4.05;;;6.60;99.90;;;;;;6243256;23;20192;-71
2022/05/07 04:41:40;;;;;;;5.25;4.75;;;6.60;99.90;;;;;;6243215;23;20207;-71
2022/05/07 04:44:06;;;;;;;4.90;4.50;;;6.60;99.90;;;;;;6243442;23;20176;-70
2022/05/07 04:46:33;;;;;;;4.60;4.20;;;6.70;99.90;;;;;;6243310;23;20733;-70
2022/05/07 04:49:00;;;;;;;8.45;4.40;;;6.70;99.90;;;;;;6242241;23;20201;-70
2022/05/07 04:51:27;;;;;;;8.95;5.05;;;6.70;99.90;;;;;;6243180;23;20588;-70
2022/05/07 04:53:54;;;;;;;5.10;4.60;;;6.80;99.90;;;;;;6243294;23;20176;-70
2022/05/07 04:56:24;;;;;;;5.20;4.75;;;6.80;99.90;;;;;;6242567;23;20176;-69
2022/05/07 04:58:51;;;;;;;6.22;5.10;;;6.90;99.90;;;;;;6242484;23;20212;-70
2022/05/07 05:01:18;;;;;;;5.95;4.57;;;7.00;99.90;;;;;;6242651;23;20189;-69
2022/05/07 05:03:45;;;;;;;6.57;5.03;;;7.10;99.90;;;;;;6243260;23;20195;-70
2022/05/07 05:06:13;;;;;;;7.20;5.10;;;7.20;99.90;;;;;;6243531;23;20172;-70
2022/05/07 05:08:39;;;;;;;7.25;4.97;;;7.30;99.90;;;;;;6242473;23;20202;-69
2022/05/07 05:11:06;;;;;;;13.77;4.75;;;7.40;99.90;;;;;;6243084;23;20168;-70
2022/05/07 05:13:34;;;;;;;5.55;4.65;;;7.50;99.90;;;;;;6242864;23;20179;-70
2022/05/07 05:16:01;;;;;;;5.38;4.88;;;7.60;99.90;;;;;;6242587;23;20646;-69
2022/05/07 05:18:27;;;;;;;6.38;4.65;;;7.70;99.90;;;;;;6242037;23;20507;-70
2022/05/07 05:20:55;;;;;;;5.28;4.65;;;7.80;99.90;;;;;;6243197;23;20193;-70
2022/05/07 05:23:22;;;;;;;5.68;5.10;;;7.90;99.90;;;;;;6242738;23;20698;-70
2022/05/07 05:25:49;;;;;;;6.10;5.10;;;8.00;99.90;;;;;;6242923;23;20180;-70
2022/05/07 05:28:16;;;;;;;5.00;4.60;;;8.10;99.90;;;;;;6242282;23;20196;-69
2022/05/07 05:30:46;;;;;;;7.50;4.75;;;8.20;99.90;;;;;;6243051;23;20175;-70
2022/05/07 05:33:12;;;;;;;5.38;4.60;;;8.20;99.90;;;;;;6242728;22;20559;-70
2022/05/07 05:35:39;;;;;;;5.65;4.90;;;8.30;99.90;;;;;;6240777;22;20200;-70
2022/05/07 05:38:06;;;;;;;9.38;5.88;;;8.40;99.90;;;;;;6242083;23;20203;-70
2022/05/07 05:40:33;;;;;;;6.93;6.22;;;8.50;99.90;;;;;;6242764;23;20177;-70
2022/05/07 05:42:59;;;;;;;6.88;5.90;;;8.60;99.90;;;;;;6243848;23;20180;-70
2022/05/07 05:45:27;;;;;;;6.68;6.07;;;8.80;99.90;;;;;;6245582;23;20195;-70
2022/05/07 05:47:55;;;;;;;6.88;6.20;;;8.90;99.90;;;;;;6244796;23;20242;-70
2022/05/07 05:50:22;;;;;;;7.60;6.10;;;9.00;99.90;;;;;;6244818;23;20172;-70
2022/05/07 05:52:48;;;;;;;7.50;6.80;;;9.10;99.90;;;;;;6244941;23;20188;-70
2022/05/07 05:55:15;;;;;;;7.55;6.85;;;9.30;99.90;;;;;;6245143;23;20230;-70
2022/05/07 05:57:44;;;;;;;8.30;7.50;;;9.40;99.90;;;;;;6244711;23;20196;-71
2022/05/07 06:00:11;;;;;;;8.98;7.97;;;9.50;99.90;;;;;;6244362;23;20279;-71
2022/05/07 06:02:38;;;;;;;8.00;7.20;;;9.70;99.90;;;;;;6244865;23;20502;-71
2022/05/07 06:05:07;;;;;;;8.88;6.78;;;9.80;99.90;;;;;;6244879;23;20226;-70
2022/05/07 06:07:33;;;;;;;9.27;8.27;;;9.90;99.90;;;;;;6245085;23;20180;-71
2022/05/07 06:10:00;;;;;;;7.93;6.95;;;10.10;99.90;;;;;;6243867;23;20176;-70
2022/05/07 06:12:27;;;;;;;8.63;6.15;;;10.20;99.90;;;;;;6245099;23;20180;-70
2022/05/07 06:14:55;;;;;;;8.13;6.85;;;10.40;99.90;;;;;;6244581;23;20173;-70
2022/05/07 06:17:21;;;;;;;8.85;7.30;;;10.50;99.90;;;;;;6243733;23;20184;-71
2022/05/07 06:19:48;;;;;;;7.80;6.93;;;10.70;99.90;;;;;;6243480;23;20172;-71
2022/05/07 06:22:16;;;;;;;8.43;7.35;;;10.80;99.90;;;;;;6243676;23;20246;-72
2022/05/07 06:27:31;;;;;;;11.63;7.28;;;11.10;99.90;;;;;;6243205;23;20164;-72
2022/05/07 06:29:58;;;;;;;8.10;7.30;;;11.30;99.90;;;;;;6242773;23;20248;-72
2022/05/07 06:32:30;;;;;;;9.23;8.18;;;11.50;99.90;;;;;;6243148;23;20173;-69
2022/05/07 06:34:57;;;;;;;7.32;6.43;;;11.60;99.90;;;;;;6243309;22;20531;-71
2022/05/07 06:37:25;;;;;;;8.93;7.43;;;11.70;99.90;;;;;;6243863;23;20191;-72
2022/05/07 06:39:52;;;;;;;8.50;7.70;;;11.90;99.90;;;;;;6242904;23;20728;-72
2022/05/07 06:42:19;;;;;;;9.20;8.20;;;12.00;99.90;;;;;;6243212;23;20449;-72
2022/05/07 06:44:45;;;;;;;10.10;8.60;;;12.10;99.90;;;;;;6244601;23;20565;-72
2022/05/07 06:47:12;;;;;;;10.47;8.20;;;12.10;99.90;;;;;;6244778;23;20423;-71
2022/05/07 06:49:39;;;;;;;9.77;7.28;;;12.30;99.90;;;;;;6243507;23;20438;-70
2022/05/07 06:52:06;;;;;;;9.65;8.65;;;12.40;99.90;;;;;;6244760;23;20176;-70
2022/05/07 06:54:34;;;;;;;10.83;8.17;;;12.50;99.90;;;;;;6244343;23;20502;-70
2022/05/07 06:57:01;;;;;;;12.53;8.63;;;12.60;99.90;;;;;;6243908;23;20419;-70
2022/05/07 06:59:28;;;;;;;9.73;8.57;;;12.80;99.90;;;;;;6243565;23;20445;-70
2022/05/07 07:01:55;;;;;;;9.70;8.70;;;12.90;99.90;;;;;;6244371;23;20439;-70
2022/05/07 07:04:22;;;;;;;12.00;9.83;;;13.00;99.90;;;;;;6244849;23;20415;-70
2022/05/07 07:06:49;;;;;;;11.23;9.10;;;13.10;99.90;;;;;;6244631;23;20446;-70
2022/05/07 07:09:16;;;;;;;8.83;8.03;;;13.20;99.90;;;;;;6243244;23;20436;-72
2022/05/07 07:11:45;;;;;;;9.00;7.43;;;13.30;99.90;;;;;;6244375;23;20415;-71
2022/05/07 07:14:12;;;;;;;9.57;8.60;;;13.50;99.90;;;;;;6244291;23;20829;-70
2022/05/07 07:16:39;;;;;;;13.87;9.13;;;13.70;99.90;;;;;;6244185;23;20756;-71
2022/05/07 07:19:05;;;;;;;8.47;7.67;;;13.80;99.90;;;;;;6243413;23;20446;-71
2022/05/07 07:21:32;;;;;;;9.80;7.87;;;14.00;99.90;;;;;;6244192;23;20439;-71
2022/05/07 07:24:00;;;;;;;9.50;8.50;;;14.10;99.90;;;;;;6244265;23;20502;-70
2022/05/07 07:26:27;;;;;;;8.03;7.23;;;14.20;99.90;;;;;;6243547;23;20951;-71
2022/05/07 07:28:55;;;;;;;9.93;8.80;;;14.30;99.90;;;;;;6242622;23;20446;-71
2022/05/07 07:31:22;;;;;;;9.03;8.03;;;14.50;99.90;;;;;;6243084;23;20469;-71
2022/05/07 07:33:49;;;;;;;10.23;7.27;;;14.60;99.90;;;;;;6243607;22;20431;-70
2022/05/07 07:36:16;;;;;;;6.73;6.13;;;14.80;99.90;;;;;;6244406;23;20404;-70
2022/05/07 07:38:43;;;;;;;8.20;6.87;;;14.90;99.90;;;;;;6241561;23;20449;-71
2022/05/07 07:41:10;;;;;;;7.43;6.20;;;15.00;99.90;;;;;;6242751;23;20419;-70
2022/05/07 07:43:38;;;;;;;12.93;7.17;;;15.20;99.90;;;;;;6242361;23;20450;-71
2022/05/07 07:48:52;;;;;;;7.00;6.40;;;15.40;99.90;;;;;;6241395;23;20425;-70
2022/05/07 07:51:19;;;;;;;7.90;6.70;;;15.60;99.90;;;;;;6243085;23;21015;-70
2022/05/07 07:53:46;;;;;;;7.93;6.83;;;15.80;99.90;;;;;;6242568;23;20445;-70
2022/05/07 07:56:13;;;;;;;7.50;6.70;;;16.00;99.90;;;;;;6242295;23;20415;-70
2022/05/07 07:58:40;;;;;;;10.57;7.30;;;16.10;99.90;;;;;;6241587;23;20775;-71
2022/05/07 08:01:08;;;;;;;8.63;7.13;;;16.10;99.90;;;;;;6242632;23;20423;-70
2022/05/07 08:03:34;;;;;;;8.20;7.40;;;16.20;99.90;;;;;;6242552;23;20431;-70
2022/05/07 08:06:01;;;;;;;10.70;7.67;;;16.10;99.90;;;;;;6242228;23;20483;-70
2022/05/07 08:13:56;;;;;;;11.63;8.93;;;16.20;99.90;;;;;;6241418;23;20434;-70
2022/05/07 08:16:25;;;;;;;10.87;7.53;;;16.40;99.90;;;;;;6242567;23;20419;-70
2022/05/07 08:18:52;;;;;;;11.27;7.67;;;16.50;99.90;;;;;;6239380;23;20439;-70
2022/05/07 08:21:19;;;;;;;8.83;8.00;;;16.60;99.90;;;;;;6241778;23;20442;-70
2022/05/07 08:23:46;;;;;;;9.13;8.17;;;16.80;99.90;;;;;;6242083;23;20446;-70
2022/05/07 08:26:12;;;;;;;9.80;8.80;;;17.00;99.90;;;;;;6251665;23;20518;-70
2022/05/07 08:28:40;;;;;;;9.70;8.77;;;17.10;99.90;;;;;;6250152;23;20522;-70
2022/05/07 08:31:07;;;;;;;9.30;8.50;;;17.20;99.90;;;;;;6242144;23;20419;-70
2022/05/07 08:33:37;;;;;;;9.10;8.27;;;17.40;99.90;;;;;;6240782;22;20421;-70
2022/05/07 08:36:04;;;;;;;9.50;8.60;;;17.50;99.90;;;;;;6238853;23;20462;-71
2022/05/07 08:38:48;;;;;;;9.30;8.40;;;17.60;99.90;;;;;;6236337;23;20458;-71
2022/05/07 08:41:15;;;;;;;11.13;8.30;;;17.90;99.90;;;;;;6249369;23;20410;-70
2022/05/07 08:43:43;;;;;;;9.90;8.97;;;18.20;99.90;;;;;;6240783;23;20419;-71
2022/05/07 08:46:12;;;;;;;13.17;8.67;;;18.40;99.90;;;;;;6239684;23;20415;-70
2022/05/07 08:48:42;;;;;;;8.47;7.57;;;18.50;99.90;;;;;;6239968;23;20751;-70
2022/05/07 08:51:10;;;;;;;9.00;8.10;;;18.60;99.90;;;;;;6240740;23;20451;-70
2022/05/07 08:53:38;;;;;;;9.37;8.47;;;18.60;99.90;;;;;;6240532;23;21062;-70
2022/05/07 08:56:07;;;;;;;9.10;8.20;;;18.60;99.90;;;;;;6240725;23;20912;-70
2022/05/07 08:58:33;;;;;;;9.30;8.40;;;18.60;99.90;;;;;;6239546;23;20813;-70
2022/05/07 09:01:00;;;;;;;9.00;8.07;;;18.70;99.90;;;;;;6239438;23;20422;-70
2022/05/07 09:03:39;;;;;;;9.10;8.17;;;19.10;99.90;;;;;;6240506;23;20449;-72
2022/05/07 09:06:24;;;;;;;9.00;8.10;;;19.30;99.90;;;;;;6240524;23;20869;-70
2022/05/07 09:08:53;;;;;;;9.70;8.80;;;19.70;99.70;;;;;;6239901;23;21038;-71
2022/05/07 09:11:23;;;;;;;9.33;8.43;;;19.70;99.90;;;;;;6240859;23;20728;-70
2022/05/07 09:14:00;;;;;;;8.20;7.37;;;19.70;99.90;;;;;;6240811;23;20419;-71
2022/05/07 09:16:37;;;;;;;11.23;8.37;;;19.60;99.50;;;;;;6239817;23;20406;-71
2022/05/07 09:19:04;;;;;;;9.33;8.00;;;19.90;99.50;;;;;;6239931;23;20439;-71
2022/05/07 09:21:32;;;;;;;7.97;7.17;;;20.30;98.00;;;;;;6240246;23;20423;-71
2022/05/07 09:24:05;;;;;;;7.80;5.80;;;21.00;96.40;;;;;;6239145;23;20423;-71
2022/05/07 09:26:33;;;;;;;6.13;5.63;;;21.60;96.80;;;;;;6240095;23;20419;-70
2022/05/07 09:29:01;;;;;;;6.07;5.50;;;21.90;95.10;;;;;;6239406;23;20446;-70
2022/05/07 09:31:29;;;;;;;5.90;5.37;;;21.40;95.40;;;;;;6239949;23;20415;-70
2022/05/07 09:35:47;;;;;;;7.30;6.60;;;21.30;95.30;;;;;;6239794;22;20427;-70
2022/05/07 09:36:44;;;;;;;5.93;5.43;;;21.50;95.00;;;;;;6239325;23;20411;-71
2022/05/07 09:39:11;;;;;;;7.20;5.40;;;21.00;94.80;;;;;;6239708;23;20466;-70
2022/05/07 09:41:39;;;;;;;6.07;5.47;;;20.50;94.10;;;;;;6238013;23;20427;-71
2022/05/07 09:44:06;;;;;;;6.10;5.50;;;20.00;94.60;;;;;;6239934;23;20502;-70
2022/05/07 09:46:33;;;;;;;6.97;4.57;;;19.50;95.20;;;;;;6240745;23;20419;-71
2022/05/07 09:49:03;;;;;;;4.67;3.83;;;19.80;95.70;;;;;;6239729;23;20805;-71
2022/05/07 09:51:31;;;;;;;4.73;4.13;;;20.90;94.60;;;;;;6251331;23;20423;-71
2022/05/07 09:59:29;;;;;;;3.70;3.40;;;22.70;90.80;;;;;;6239910;23;20442;-71
2022/05/07 10:02:09;;;;;;;4.10;3.70;;;21.90;91.50;;;;;;6241040;23;20423;-71
2022/05/07 10:04:59;;;;;;;4.93;3.57;;;21.40;91.50;;;;;;6240432;23;20442;-71
2022/05/07 10:07:46;;;;;;;4.20;3.10;;;21.00;92.50;;;;;;6240474;23;20751;-72
2022/05/07 10:10:25;;;;;;;4.20;2.63;;;21.10;91.90;;;;;;6240021;23;20441;-72
2022/05/07 10:12:54;;;;;;;3.50;2.53;;;20.90;90.50;;;;;;6240890;23;20482;-71
2022/05/07 10:15:23;;;;;;;3.17;2.30;;;20.60;90.40;;;;;;6240062;23;20415;-71
2022/05/07 10:17:58;;;;;;;2.37;2.17;;;20.60;90.40;;;;;;6240126;23;20435;-71
2022/05/07 10:20:25;;;;;;;3.10;2.60;;;20.60;90.80;;;;;;6239818;23;20934;-72
2022/05/07 10:22:56;;;;;;;2.60;2.40;;;20.50;90.30;;;;;;6240826;23;20478;-71
2022/05/07 10:25:24;;;;;;;2.40;2.10;;;20.70;91.40;;;;;;6240034;23;20780;-71
2022/05/07 10:27:51;;;;;;;2.27;2.13;;;21.10;90.90;;;;;;6239999;23;20791;-71
2022/05/07 10:30:21;;;;;;;2.27;2.07;;;21.50;90.60;;;;;;6241762;23;20900;-70
2022/05/07 10:32:55;;;;;;;2.33;2.13;;;22.10;90.00;;;;;;6241527;23;20489;-70
2022/05/07 10:35:41;;;;;;;2.93;2.73;;;23.10;89.90;;;;;;6242089;22;20430;-71
2022/05/07 10:38:08;;;;;;;2.93;2.47;;;24.30;88.20;;;;;;6237311;23;20468;-70
2022/05/07 10:40:37;;;;;;;2.63;2.20;;;25.10;85.60;;;;;;6235043;23;20976;-70
2022/05/07 10:43:05;;;;;;;3.67;2.60;;;26.00;83.60;;;;;;6239037;23;20496;-70
2022/05/07 10:45:41;;;;;;;3.80;2.73;;;26.70;78.40;;;;;;6236031;23;20510;-71
2022/05/07 10:48:17;;;;;;;3.60;2.70;;;27.10;79.50;;;;;;6238246;23;20478;-70
2022/05/07 10:50:51;;;;;;;3.30;2.60;;;27.40;76.90;;;;;;6238360;23;20431;-71
2022/05/07 10:53:18;;;;;;;3.23;2.57;;;26.80;75.60;;;;;;6237947;23;21141;-70
2022/05/07 10:55:46;;;;;;;3.13;2.80;;;26.60;80.80;;;;;;6233696;23;20430;-70
2022/05/07 10:58:13;;;;;;;3.00;2.80;;;26.30;78.80;;;;;;6236205;23;20799;-70
2022/05/07 11:00:40;;;;;;;2.80;2.40;;;26.90;76.70;;;;;;6236837;23;20722;-70
2022/05/07 11:03:11;;;;;;;4.23;2.83;;;27.20;77.80;;;;;;6238731;23;20771;-69
2022/05/07 11:05:39;;;;;;;2.80;2.23;;;27.00;80.30;;;;;;6239360;23;20490;-69
2022/05/07 11:08:06;;;;;;;4.20;3.00;;;27.00;80.60;;;;;;6242035;23;20968;-69
2022/05/07 11:10:33;;;;;;;3.43;2.83;;;27.50;77.80;;;;;;6241125;23;20731;-69
2022/05/07 11:13:08;;;;;;;5.07;2.47;;;28.20;72.50;;;;;;6243200;23;20526;-69
2022/05/07 11:15:35;;;;;;;2.97;2.50;;;28.20;75.30;;;;;;6242574;23;20415;-69
2022/05/07 11:18:13;;;;;;;4.67;2.97;;;28.30;76.30;;;;;;6242026;23;20448;-69
2022/05/07 11:20:41;;;;;;;3.70;2.70;;;27.90;75.60;;;;;;6242824;23;20408;-69
2022/05/07 11:23:12;;;;;;;3.40;3.10;;;27.80;74.50;;;;;;6242642;23;20477;-69
2022/05/07 11:25:40;;;;;;;5.03;3.20;;;27.40;76.70;;;;;;6242220;23;20434;-68
2022/05/07 11:28:08;;;;;;;3.70;2.60;;;27.00;75.50;;;;;;6241422;23;20467;-69
2022/05/07 11:30:35;;;;;;;3.40;3.10;;;26.80;74.20;;;;;;6241736;23;20419;-70
2022/05/07 11:33:05;;;;;;;3.00;2.80;;;26.80;79.20;;;;;;6241048;23;20446;-70
2022/05/07 11:35:33;;;;;;;3.27;3.07;;;27.10;76.10;;;;;;6255497;22;20592;-90
2022/05/07 11:38:01;;;;;;;4.40;2.90;;;27.30;71.50;;;;;;6288330;22;20481;-88
2022/05/07 11:40:29;;;;;;;3.50;3.20;;;27.50;73.50;;;;;;6289832;22;20429;-89
2022/05/07 11:45:38;;;;;;;4.00;3.10;;;28.10;77.00;;;;;;6277345;22;20912;-91
2022/05/07 11:48:13;;;;;;;3.40;3.10;;;28.00;74.70;;;;;;6289483;22;20420;-90
2022/05/07 11:50:41;;;;;;;6.10;3.70;;;27.60;74.70;;;;;;6288994;22;20408;-90
2022/05/07 11:53:13;;;;;;;4.50;2.97;;;27.30;76.20;;;;;;6289073;22;20526;-90
2022/05/07 11:55:41;;;;;;;3.50;3.03;;;26.40;77.90;;;;;;6289662;22;20446;-90
2022/05/07 11:58:16;;;;;;;3.70;2.90;;;25.80;79.20;;;;;;6289401;22;20426;-89
2022/05/07 12:00:45;;;;;;;3.00;2.80;;;25.10;76.90;;;;;;6287843;22;20457;-88
2022/05/07 12:03:12;;;;;;;4.90;2.87;;;24.60;77.90;;;;;;6276799;22;20429;-89
2022/05/07 12:05:41;;;;;;;4.63;3.40;;;24.20;78.40;;;;;;6287584;22;20438;-90
2022/05/07 12:08:14;;;;;;;2.87;2.67;;;24.00;80.00;;;;;;6277300;22;20429;-89
2022/05/07 12:10:42;;;;;;;2.90;2.60;;;23.90;78.70;;;;;;6287570;22;20412;-89
2022/05/07 12:13:09;;;;;;;3.50;3.20;;;23.70;79.90;;;;;;6287385;22;20477;-89
2022/05/07 12:18:24;;;;;;;3.10;2.70;;;24.10;79.30;;;;;;6292101;22;20378;-90
2022/05/07 12:20:51;;;;;;;3.90;2.60;;;24.40;78.40;;;;;;6280453;22;20421;-90
2022/05/07 12:31:31;;;;;;;3.47;2.70;;;25.10;77.90;;;;;;6282583;22;20452;-90
2022/05/07 12:34:00;;;;;;;2.67;2.40;;;25.40;80.50;;;;;;6283831;22;20426;-90
2022/05/07 12:36:28;;;;;;;2.43;2.20;;;25.80;75.40;;;;;;6282455;22;20476;-91
2022/05/07 12:38:59;;;;;;;2.60;2.40;;;26.10;77.10;;;;;;6292818;22;20440;-89
2022/05/07 12:41:26;;;;;;;2.90;2.43;;;26.50;77.70;;;;;;6280087;22;20403;-89
2022/05/07 12:43:53;;;;;;;3.63;2.73;;;26.80;72.70;;;;;;6279701;22;20501;-90
2022/05/07 12:46:20;;;;;;;2.50;2.30;;;26.70;74.10;;;;;;6290700;22;20480;-89
2022/05/07 12:48:47;;;;;;;2.90;2.60;;;26.50;76.70;;;;;;6292080;22;20442;-92
2022/05/07 12:51:19;;;;;;;2.93;2.63;;;26.70;78.90;;;;;;6280414;22;20726;-89
2022/05/07 12:53:49;;;;;;;3.57;2.60;;;27.20;80.00;;;;;;6290895;22;20441;-90
2022/05/07 12:56:15;;;;;;;2.63;2.27;;;27.40;76.50;;;;;;6286704;22;20422;-90
2022/05/07 12:58:42;;;;;;;3.00;2.73;;;28.00;76.40;;;;;;6287552;22;20754;-90
2022/05/07 13:01:12;;;;;;;2.40;2.20;;;28.20;73.70;;;;;;6286307;22;20418;-90
2022/05/07 13:03:42;;;;;;;3.50;2.43;;;28.10;73.30;;;;;;6295948;22;20956;-90
2022/05/07 13:06:09;;;;;;;2.60;2.40;;;28.00;72.40;;;;;;6299245;22;20466;-90
2022/05/07 13:08:38;;;;;;;2.60;2.40;;;28.10;72.20;;;;;;6294953;22;20757;-91
2022/05/07 13:11:05;;;;;;;3.00;2.43;;;28.70;74.90;;;;;;6281955;22;20510;-91
2022/05/07 13:13:32;;;;;;;4.03;2.90;;;28.80;71.10;;;;;;6294125;22;20439;-91
2022/05/07 13:15:59;;;;;;;3.13;2.83;;;28.40;71.40;;;;;;6293412;22;20441;-90
2022/05/07 13:18:30;;;;;;;3.43;3.13;;;27.80;74.30;;;;;;6296230;22;20419;-90
2022/05/07 13:20:56;;;;;;;5.70;2.47;;;27.40;72.30;;;;;;6295502;22;20481;-91
2022/05/07 13:23:26;;;;;;;2.53;2.20;;;27.20;72.20;;;;;;6283539;22;20425;-90
2022/05/07 13:25:57;;;;;;;3.40;2.70;;;26.80;73.00;;;;;;6293273;22;20454;-90
2022/05/07 13:28:24;;;;;;;5.67;3.73;;;26.20;75.00;;;;;;6291990;22;20414;-90
2022/05/07 13:30:56;;;;;;;3.90;2.70;;;26.00;72.90;;;;;;6282026;22;20429;-90
2022/05/07 13:33:23;;;;;;;3.03;2.83;;;26.00;74.00;;;;;;6283054;22;20458;-90
2022/05/07 13:35:51;;;;;;;4.67;3.43;;;26.10;71.10;;;;;;6284273;22;20517;-90
2022/05/07 13:38:18;;;;;;;3.20;2.80;;;25.90;74.80;;;;;;6282759;22;20418;-90